createdAt,value
2022-12-03T00:00:41.946Z,99.62
2022-12-03T00:01:41.943Z,99.62
2022-12-03T00:02:42.087Z,99.62
2022-12-03T00:03:42.095Z,99.73
2022-12-03T00:04:41.923Z,99.83
2022-12-03T00:05:48.492Z,99.83
2022-12-03T00:06:42.911Z,99.93
2022-12-03T00:07:41.944Z,99.93
2022-12-03T00:08:41.847Z,99.99
2022-12-03T00:09:41.842Z,99.99
2022-12-03T00:10:41.825Z,99.83
2022-12-03T00:11:41.806Z,99.52
2022-12-03T00:12:41.806Z,99.62
2022-12-03T00:13:41.790Z,99.73
2022-12-03T00:14:53.279Z,99.83
2022-12-03T00:15:42.822Z,99.73
2022-12-03T00:16:41.745Z,99.52
2022-12-03T00:17:41.728Z,98.89
2022-12-03T00:18:41.719Z,98.68
2022-12-03T00:19:41.705Z,98.99
2022-12-03T00:20:41.712Z,99.20
2022-12-03T00:21:41.673Z,99.52
2022-12-03T00:22:41.672Z,99.10
2022-12-03T00:23:42.459Z,98.79
2022-12-03T00:24:41.642Z,98.79
2022-12-03T00:25:41.625Z,98.68
2022-12-03T00:26:41.619Z,98.37
2022-12-03T00:27:41.603Z,98.37
2022-12-03T00:28:41.587Z,98.26
2022-12-03T00:29:41.582Z,98.37
2022-12-03T00:30:41.633Z,98.37
2022-12-03T00:31:41.606Z,98.58
2022-12-03T00:32:41.538Z,98.58
2022-12-03T00:33:41.516Z,98.58
2022-12-03T00:34:41.504Z,98.37
2022-12-03T00:35:41.500Z,98.16
2022-12-03T00:36:41.502Z,98.37
2022-12-03T00:37:41.475Z,98.47
2022-12-03T00:38:41.451Z,98.68
2022-12-03T00:39:41.447Z,98.89
2022-12-03T00:40:41.426Z,98.89
2022-12-03T00:41:41.416Z,98.89
2022-12-03T00:42:41.402Z,98.89
2022-12-03T00:43:41.394Z,98.89
2022-12-03T00:44:41.378Z,98.99
2022-12-03T00:45:41.367Z,98.99
2022-12-03T00:46:41.412Z,98.99
2022-12-03T00:47:41.344Z,98.89
2022-12-03T00:48:41.329Z,98.79
2022-12-03T00:49:41.327Z,98.68
2022-12-03T00:50:41.302Z,98.89
2022-12-03T00:51:41.289Z,98.93
2022-12-03T00:52:41.301Z,99.04
2022-12-03T00:53:41.260Z,98.89
2022-12-03T00:54:41.247Z,98.99
2022-12-03T00:55:41.244Z,98.99
2022-12-03T00:56:41.232Z,98.89
2022-12-03T00:57:41.208Z,98.79
2022-12-03T00:58:41.200Z,98.79
2022-12-03T00:59:41.186Z,98.68
2022-12-03T01:00:41.174Z,98.89
2022-12-03T01:01:41.223Z,98.79
2022-12-03T01:02:41.148Z,98.93
2022-12-03T01:03:41.139Z,98.93
2022-12-03T01:04:41.213Z,99.04
2022-12-03T01:05:41.105Z,99.04
2022-12-03T01:06:41.090Z,99.15
2022-12-03T01:07:41.121Z,99.25
2022-12-03T01:08:41.100Z,99.46
2022-12-03T01:09:41.059Z,99.52
2022-12-03T01:10:41.040Z,99.35
2022-12-03T01:11:41.040Z,99.31
2022-12-03T01:12:41.014Z,99.31
2022-12-03T01:13:41.012Z,99.15
2022-12-03T01:14:40.986Z,99.10
2022-12-03T01:15:41.077Z,99.41
2022-12-03T01:16:40.971Z,99.41
2022-12-03T01:17:40.948Z,99.41
2022-12-03T01:18:40.935Z,99.41
2022-12-03T01:19:46.510Z,99.41
2022-12-03T01:20:41.945Z,99.31
2022-12-03T01:21:40.910Z,99.20
2022-12-03T01:22:40.884Z,99.10
2022-12-03T01:23:40.886Z,98.99
2022-12-03T01:24:40.892Z,99.10
2022-12-03T01:25:40.853Z,99.10
2022-12-03T01:26:40.832Z,99.10
2022-12-03T01:27:40.822Z,99.10
2022-12-03T01:28:40.807Z,99.10
2022-12-03T01:29:40.799Z,98.99
2022-12-03T01:30:40.797Z,98.89
2022-12-03T01:31:40.840Z,98.79
2022-12-03T01:32:40.762Z,98.68
2022-12-03T01:33:40.754Z,98.68
2022-12-03T01:34:40.736Z,98.79
2022-12-03T01:35:40.718Z,98.99
2022-12-03T01:36:40.712Z,99.10
2022-12-03T01:37:40.691Z,99.35
2022-12-03T01:38:40.678Z,99.56
2022-12-03T01:39:40.671Z,99.41
2022-12-03T01:40:40.678Z,99.46
2022-12-03T01:41:40.653Z,99.35
2022-12-03T01:42:40.625Z,98.72
2022-12-03T01:43:40.622Z,98.58
2022-12-03T01:44:40.611Z,98.83
2022-12-03T01:45:40.598Z,98.93
2022-12-03T01:46:40.645Z,98.99
2022-12-03T01:47:40.568Z,99.04
2022-12-03T01:48:40.554Z,99.25
2022-12-03T01:49:40.548Z,99.25
2022-12-03T01:50:40.524Z,99.31
2022-12-03T01:51:40.515Z,99.46
2022-12-03T01:52:40.496Z,99.46
2022-12-03T01:53:40.486Z,99.31
2022-12-03T01:54:40.480Z,99.10
2022-12-03T01:55:40.460Z,99.10
2022-12-03T01:56:40.479Z,99.35
2022-12-03T01:57:40.441Z,99.46
2022-12-03T01:58:40.420Z,99.46
2022-12-03T01:59:40.421Z,99.35
2022-12-03T02:00:40.404Z,99.35
2022-12-03T02:01:40.466Z,99.56
2022-12-03T02:02:40.381Z,99.46
2022-12-03T02:03:40.435Z,99.35
2022-12-03T02:04:40.355Z,99.35
2022-12-03T02:05:40.332Z,99.46
2022-12-03T02:06:40.328Z,99.56
2022-12-03T02:07:40.493Z,99.66
2022-12-03T02:08:40.302Z,99.77
2022-12-03T02:09:40.279Z,99.83
2022-12-03T02:10:40.275Z,99.83
2022-12-03T02:11:40.256Z,99.83
2022-12-03T02:12:40.266Z,99.73
2022-12-03T02:13:40.229Z,99.73
2022-12-03T02:14:40.222Z,99.73
2022-12-03T02:15:40.253Z,99.73
2022-12-03T02:16:40.289Z,99.73
2022-12-03T02:17:40.179Z,99.62
2022-12-03T02:18:40.170Z,99.31
2022-12-03T02:19:40.155Z,98.99
2022-12-03T02:20:40.149Z,98.99
2022-12-03T02:21:40.126Z,98.99
2022-12-03T02:22:40.124Z,98.58
2022-12-03T02:23:40.100Z,98.68
2022-12-03T02:24:40.088Z,98.62
2022-12-03T02:25:40.082Z,98.68
2022-12-03T02:26:40.072Z,98.83
2022-12-03T02:27:40.059Z,98.79
2022-12-03T02:28:40.059Z,98.79
2022-12-03T02:29:40.018Z,98.93
2022-12-03T02:30:40.019Z,99.04
2022-12-03T02:31:40.075Z,99.10
2022-12-03T02:32:39.992Z,98.99
2022-12-03T02:33:39.986Z,98.93
2022-12-03T02:34:39.964Z,98.62
2022-12-03T02:35:39.949Z,99.04
2022-12-03T02:36:39.939Z,99.15
2022-12-03T02:37:39.920Z,99.25
2022-12-03T02:38:39.909Z,99.35
2022-12-03T02:39:39.905Z,99.56
2022-12-03T02:40:39.888Z,99.62
2022-12-03T02:41:39.872Z,99.62
2022-12-03T02:42:39.867Z,99.52
2022-12-03T02:43:39.843Z,99.25
2022-12-03T02:44:39.861Z,99.20
2022-12-03T02:45:39.836Z,99.31
2022-12-03T02:46:39.895Z,99.20
2022-12-03T02:47:39.792Z,99.10
2022-12-03T02:48:39.789Z,99.20
2022-12-03T02:49:39.766Z,99.31
2022-12-03T02:50:39.759Z,99.31
2022-12-03T02:51:39.755Z,98.89
2022-12-03T02:52:39.733Z,98.79
2022-12-03T02:53:39.715Z,98.68
2022-12-03T02:54:39.706Z,98.62
2022-12-03T02:55:39.700Z,98.68
2022-12-03T02:56:39.676Z,98.93
2022-12-03T02:57:39.663Z,99.10
2022-12-03T02:58:39.656Z,99.35
2022-12-03T02:59:39.640Z,99.31
2022-12-03T03:00:39.720Z,99.31
2022-12-03T03:01:39.722Z,99.10
2022-12-03T03:02:39.655Z,99.20
2022-12-03T03:03:39.599Z,99.31
2022-12-03T03:04:39.586Z,99.10
2022-12-03T03:05:39.576Z,98.62
2022-12-03T03:06:39.548Z,98.68
2022-12-03T03:07:39.659Z,98.72
2022-12-03T03:08:39.527Z,98.93
2022-12-03T03:09:39.512Z,99.04
2022-12-03T03:10:39.505Z,99.15
2022-12-03T03:11:39.493Z,99.04
2022-12-03T03:12:39.625Z,98.79
2022-12-03T03:13:39.459Z,98.72
2022-12-03T03:14:39.451Z,98.99
2022-12-03T03:15:39.439Z,98.62
2022-12-03T03:16:39.556Z,98.10
2022-12-03T03:17:39.413Z,98.31
2022-12-03T03:18:39.400Z,98.41
2022-12-03T03:19:39.384Z,98.31
2022-12-03T03:20:39.378Z,98.31
2022-12-03T03:21:39.353Z,98.41
2022-12-03T03:22:39.348Z,98.56
2022-12-03T03:23:39.330Z,98.77
2022-12-03T03:24:39.322Z,98.93
2022-12-03T03:25:39.320Z,99.15
2022-12-03T03:26:39.296Z,99.04
2022-12-03T03:27:39.276Z,98.93
2022-12-03T03:28:39.273Z,98.93
2022-12-03T03:29:39.260Z,99.08
2022-12-03T03:30:39.239Z,99.04
2022-12-03T03:31:39.287Z,99.25
2022-12-03T03:32:39.239Z,99.25
2022-12-03T03:33:39.222Z,99.29
2022-12-03T03:34:39.188Z,99.35
2022-12-03T03:35:39.181Z,99.35
2022-12-03T03:36:39.162Z,99.35
2022-12-03T03:37:39.155Z,99.46
2022-12-03T03:38:39.135Z,99.56
2022-12-03T03:39:39.130Z,99.40
2022-12-03T03:40:39.123Z,99.46
2022-12-03T03:41:39.103Z,99.56
2022-12-03T03:42:39.082Z,99.56
2022-12-03T03:43:39.085Z,99.66
2022-12-03T03:44:39.056Z,99.66
2022-12-03T03:45:39.106Z,99.77
2022-12-03T03:46:39.035Z,99.77
2022-12-03T03:47:39.027Z,99.77
2022-12-03T03:48:39.039Z,99.66
2022-12-03T03:49:38.999Z,99.66
2022-12-03T03:50:38.980Z,99.46
2022-12-03T03:51:38.971Z,99.46
2022-12-03T03:52:38.958Z,99.46
2022-12-03T03:53:38.960Z,99.66
2022-12-03T03:54:38.938Z,99.88
2022-12-03T03:55:38.922Z,99.98
2022-12-03T03:56:38.916Z,99.66
2022-12-03T03:57:38.899Z,99.40
2022-12-03T03:58:38.888Z,99.35
2022-12-03T03:59:38.881Z,99.51
2022-12-03T04:00:38.885Z,99.61
2022-12-03T04:01:38.955Z,99.82
2022-12-03T04:02:38.835Z,99.92
2022-12-03T04:03:38.883Z,99.99
2022-12-03T04:04:38.910Z,99.99
2022-12-03T04:05:38.805Z,99.99
2022-12-03T04:06:38.780Z,99.99
2022-12-03T04:07:38.789Z,99.99
2022-12-03T04:08:38.759Z,99.99
2022-12-03T04:09:38.739Z,99.99
2022-12-03T04:10:38.724Z,99.99
2022-12-03T04:11:38.720Z,99.99
2022-12-03T04:12:38.701Z,99.99
2022-12-03T04:13:38.694Z,99.99
2022-12-03T04:14:38.671Z,99.99
2022-12-03T04:15:38.660Z,99.99
2022-12-03T04:16:38.743Z,99.99
2022-12-03T04:17:38.649Z,99.99
2022-12-03T04:18:38.630Z,99.99
2022-12-03T04:19:38.618Z,99.99
2022-12-03T04:20:38.623Z,99.99
2022-12-03T04:21:38.593Z,99.99
2022-12-03T04:22:38.572Z,99.99
2022-12-03T04:23:38.560Z,99.99
2022-12-03T04:24:38.543Z,99.99
2022-12-03T04:25:38.540Z,99.92
2022-12-03T04:26:38.525Z,99.71
2022-12-03T04:27:38.513Z,99.61
2022-12-03T04:28:38.492Z,99.71
2022-12-03T04:29:38.482Z,99.92
2022-12-03T04:30:38.541Z,99.99
2022-12-03T04:31:38.461Z,99.99
2022-12-03T04:32:38.441Z,99.99
2022-12-03T04:33:38.437Z,99.99
2022-12-03T04:34:38.430Z,99.99
2022-12-03T04:35:38.481Z,99.92
2022-12-03T04:36:38.437Z,99.99
2022-12-03T04:37:38.385Z,99.99
2022-12-03T04:38:38.371Z,99.99
2022-12-03T04:39:38.362Z,99.99
2022-12-03T04:40:38.340Z,99.99
2022-12-03T04:41:38.327Z,99.99
2022-12-03T04:42:38.315Z,99.99
2022-12-03T04:43:38.308Z,99.99
2022-12-03T04:44:38.299Z,99.99
2022-12-03T04:45:38.339Z,99.99
2022-12-03T04:46:38.263Z,99.99
2022-12-03T04:47:39.990Z,99.99
2022-12-03T04:48:38.240Z,99.99
2022-12-03T04:49:38.240Z,99.99
2022-12-03T04:50:38.217Z,99.99
2022-12-03T04:51:38.208Z,99.99
2022-12-03T04:52:38.208Z,99.99
2022-12-03T04:53:43.230Z,99.99
2022-12-03T04:54:38.170Z,99.99
2022-12-03T04:55:38.156Z,99.99
2022-12-03T04:56:38.133Z,99.99
2022-12-03T04:57:38.121Z,99.99
2022-12-03T04:58:38.113Z,99.99
2022-12-03T04:59:38.111Z,99.99
2022-12-03T05:00:38.081Z,99.99
2022-12-03T05:01:38.315Z,99.99
2022-12-03T05:02:38.118Z,99.98
2022-12-03T05:03:38.049Z,99.88
2022-12-03T05:04:38.039Z,99.98
2022-12-03T05:05:38.027Z,99.99
2022-12-03T05:06:38.014Z,99.88
2022-12-03T05:07:38.055Z,99.56
2022-12-03T05:08:38.011Z,99.51
2022-12-03T05:09:37.973Z,99.61
2022-12-03T05:10:37.960Z,99.92
2022-12-03T05:11:37.953Z,99.92
2022-12-03T05:12:37.936Z,99.99
2022-12-03T05:13:37.920Z,99.92
2022-12-03T05:14:37.917Z,99.92
2022-12-03T05:15:37.891Z,99.99
2022-12-03T05:16:37.966Z,99.99
2022-12-03T05:17:37.870Z,99.99
2022-12-03T05:18:37.857Z,99.99
2022-12-03T05:19:37.849Z,99.92
2022-12-03T05:20:37.835Z,99.92
2022-12-03T05:21:37.828Z,99.82
2022-12-03T05:22:37.808Z,99.99
2022-12-03T05:23:37.789Z,99.99
2022-12-03T05:24:37.806Z,99.96
2022-12-03T05:25:37.770Z,99.99
2022-12-03T05:26:37.758Z,99.99
2022-12-03T05:27:37.742Z,99.99
2022-12-03T05:28:37.733Z,99.99
2022-12-03T05:29:37.716Z,99.99
2022-12-03T05:30:37.846Z,99.99
2022-12-03T05:31:37.696Z,99.99
2022-12-03T05:32:37.679Z,99.99
2022-12-03T05:33:43.762Z,99.99
2022-12-03T05:34:38.683Z,99.99
2022-12-03T05:35:37.643Z,99.99
2022-12-03T05:36:37.627Z,99.99
2022-12-03T05:37:37.619Z,99.99
2022-12-03T05:38:37.597Z,99.99
2022-12-03T05:39:37.593Z,99.99
2022-12-03T05:40:37.594Z,99.99
2022-12-03T05:41:37.566Z,99.99
2022-12-03T05:42:37.546Z,99.99
2022-12-03T05:43:37.530Z,99.99
2022-12-03T05:44:37.523Z,99.99
2022-12-03T05:45:37.511Z,99.99
2022-12-03T05:46:37.585Z,99.99
2022-12-03T05:47:37.484Z,99.99
2022-12-03T05:48:37.472Z,99.99
2022-12-03T05:49:37.465Z,99.99
2022-12-03T05:50:37.451Z,99.99
2022-12-03T05:51:37.441Z,99.99
2022-12-03T05:52:37.418Z,99.99
2022-12-03T05:53:37.419Z,99.99
2022-12-03T05:54:37.399Z,99.99
2022-12-03T05:55:37.388Z,99.99
2022-12-03T05:56:37.391Z,99.99
2022-12-03T05:57:37.365Z,99.99
2022-12-03T05:58:37.354Z,99.99
2022-12-03T05:59:37.337Z,99.99
2022-12-03T06:00:42.145Z,99.99
2022-12-03T06:01:37.308Z,99.99
2022-12-03T06:02:37.428Z,99.99
2022-12-03T06:03:37.491Z,99.99
2022-12-03T06:04:37.266Z,99.99
2022-12-03T06:05:37.256Z,99.99
2022-12-03T06:06:37.261Z,99.99
2022-12-03T06:07:37.339Z,99.99
2022-12-03T06:08:37.225Z,99.99
2022-12-03T06:09:37.204Z,99.99
2022-12-03T06:10:37.196Z,99.99
2022-12-03T06:11:37.189Z,99.99
2022-12-03T06:12:37.185Z,99.99
2022-12-03T06:13:37.148Z,99.99
2022-12-03T06:14:37.146Z,99.99
2022-12-03T06:15:43.287Z,99.99
2022-12-03T06:16:38.267Z,99.99
2022-12-03T06:17:37.116Z,99.99
2022-12-03T06:18:37.083Z,99.99
2022-12-03T06:19:37.071Z,99.99
2022-12-03T06:20:37.057Z,99.99
2022-12-03T06:21:37.046Z,99.99
2022-12-03T06:22:37.041Z,99.99
2022-12-03T06:23:37.030Z,99.99
2022-12-03T06:24:37.016Z,99.99
2022-12-03T06:25:37.007Z,99.99
2022-12-03T06:26:36.992Z,99.99
2022-12-03T06:27:36.975Z,99.99
2022-12-03T06:28:36.982Z,99.99
2022-12-03T06:29:36.953Z,99.99
2022-12-03T06:30:36.940Z,99.99
2022-12-03T06:31:36.994Z,99.99
2022-12-03T06:32:36.907Z,99.99
2022-12-03T06:33:36.897Z,99.99
2022-12-03T06:34:36.895Z,99.99
2022-12-03T06:35:36.876Z,99.99
2022-12-03T06:36:36.859Z,99.99
2022-12-03T06:37:36.848Z,99.99
2022-12-03T06:38:36.830Z,99.99
2022-12-03T06:39:36.823Z,99.99
2022-12-03T06:40:36.811Z,99.99
2022-12-03T06:41:36.790Z,99.99
2022-12-03T06:42:36.793Z,99.99
2022-12-03T06:43:36.763Z,99.99
2022-12-03T06:44:36.781Z,99.99
2022-12-03T06:45:36.739Z,99.99
2022-12-03T06:46:36.763Z,99.99
2022-12-03T06:47:36.712Z,99.99
2022-12-03T06:48:36.707Z,99.99
2022-12-03T06:49:36.690Z,99.99
2022-12-03T06:50:36.683Z,99.99
2022-12-03T06:51:36.669Z,99.99
2022-12-03T06:52:36.657Z,99.99
2022-12-03T06:53:36.642Z,99.99
2022-12-03T06:54:36.623Z,99.99
2022-12-03T06:55:36.623Z,99.99
2022-12-03T06:56:43.367Z,99.99
2022-12-03T06:57:37.635Z,99.99
2022-12-03T06:58:36.571Z,99.99
2022-12-03T06:59:36.557Z,99.99
2022-12-03T07:00:36.581Z,99.99
2022-12-03T07:01:36.630Z,99.99
2022-12-03T07:02:36.596Z,99.99
2022-12-03T07:03:36.514Z,99.99
2022-12-03T07:04:36.494Z,99.99
2022-12-03T07:05:36.481Z,99.99
2022-12-03T07:06:36.468Z,99.99
2022-12-03T07:07:36.545Z,99.99
2022-12-03T07:08:36.446Z,99.99
2022-12-03T07:09:36.430Z,99.99
2022-12-03T07:10:36.439Z,99.99
2022-12-03T07:11:36.414Z,99.99
2022-12-03T07:12:36.398Z,99.99
2022-12-03T07:13:36.385Z,99.99
2022-12-03T07:14:36.371Z,99.99
2022-12-03T07:15:36.362Z,99.99
2022-12-03T07:16:36.508Z,99.99
2022-12-03T07:17:36.330Z,99.99
2022-12-03T07:18:36.315Z,99.99
2022-12-03T07:19:36.302Z,99.99
2022-12-03T07:20:36.291Z,99.99
2022-12-03T07:21:36.279Z,99.99
2022-12-03T07:22:36.272Z,99.99
2022-12-03T07:23:36.253Z,99.99
2022-12-03T07:24:36.241Z,99.99
2022-12-03T07:25:36.228Z,99.99
2022-12-03T07:26:36.215Z,99.99
2022-12-03T07:27:36.205Z,99.99
2022-12-03T07:28:36.192Z,99.99
2022-12-03T07:29:36.181Z,99.99
2022-12-03T07:30:36.175Z,99.99
2022-12-03T07:31:36.249Z,99.99
2022-12-03T07:32:36.178Z,99.99
2022-12-03T07:33:36.133Z,99.99
2022-12-03T07:34:36.117Z,99.99
2022-12-03T07:35:36.102Z,99.99
2022-12-03T07:36:36.090Z,99.99
2022-12-03T07:37:36.079Z,99.99
2022-12-03T07:38:36.067Z,99.99
2022-12-03T07:39:36.051Z,99.99
2022-12-03T07:40:36.036Z,99.99
2022-12-03T07:41:36.020Z,99.99
2022-12-03T07:42:36.007Z,99.99
2022-12-03T07:43:35.994Z,99.99
2022-12-03T07:44:35.983Z,99.99
2022-12-03T07:45:35.976Z,99.99
2022-12-03T07:46:36.039Z,99.99
2022-12-03T07:47:35.941Z,99.99
2022-12-03T07:48:35.953Z,99.99
2022-12-03T07:49:35.916Z,99.99
2022-12-03T07:50:35.910Z,99.99
2022-12-03T07:51:35.900Z,99.99
2022-12-03T07:52:35.878Z,99.99
2022-12-03T07:53:35.874Z,99.99
2022-12-03T07:54:35.852Z,99.99
2022-12-03T07:55:35.848Z,99.99
2022-12-03T07:56:35.828Z,99.99
2022-12-03T07:57:35.823Z,99.99
2022-12-03T07:58:35.812Z,99.99
2022-12-03T07:59:35.797Z,99.99
2022-12-03T08:00:35.797Z,99.99
2022-12-03T08:01:35.927Z,99.99
2022-12-03T08:02:35.825Z,99.99
2022-12-03T08:03:35.760Z,99.99
2022-12-03T08:04:35.754Z,99.99
2022-12-03T08:05:35.724Z,99.99
2022-12-03T08:06:35.711Z,99.99
2022-12-03T08:07:35.736Z,99.99
2022-12-03T08:08:35.676Z,99.99
2022-12-03T08:09:35.656Z,99.99
2022-12-03T08:10:35.662Z,99.99
2022-12-03T08:11:35.645Z,99.99
2022-12-03T08:12:35.623Z,99.99
2022-12-03T08:13:35.610Z,99.99
2022-12-03T08:14:35.597Z,99.99
2022-12-03T08:15:39.538Z,99.99
2022-12-03T08:16:35.660Z,99.99
2022-12-03T08:17:35.558Z,99.99
2022-12-03T08:18:35.544Z,99.99
2022-12-03T08:19:35.542Z,99.99
2022-12-03T08:20:35.543Z,99.99
2022-12-03T08:21:35.512Z,99.99
2022-12-03T08:22:35.502Z,99.99
2022-12-03T08:23:35.492Z,99.99
2022-12-03T08:24:35.466Z,99.99
2022-12-03T08:25:35.454Z,99.99
2022-12-03T08:26:35.451Z,99.99
2022-12-03T08:27:35.431Z,99.99
2022-12-03T08:28:35.418Z,99.99
2022-12-03T08:29:35.412Z,99.99
2022-12-03T08:30:35.400Z,99.99
2022-12-03T08:31:35.460Z,99.99
2022-12-03T08:32:35.363Z,99.99
2022-12-03T08:33:35.379Z,99.99
2022-12-03T08:34:35.338Z,99.99
2022-12-03T08:35:35.332Z,99.99
2022-12-03T08:36:35.344Z,99.99
2022-12-03T08:37:35.299Z,99.99
2022-12-03T08:38:35.286Z,99.99
2022-12-03T08:39:35.274Z,99.99
2022-12-03T08:40:35.262Z,99.99
2022-12-03T08:41:35.266Z,99.99
2022-12-03T08:42:35.242Z,99.99
2022-12-03T08:43:35.229Z,99.99
2022-12-03T08:44:35.226Z,99.99
2022-12-03T08:45:35.297Z,99.99
2022-12-03T08:46:35.194Z,99.99
2022-12-03T08:47:35.187Z,99.99
2022-12-03T08:48:35.168Z,99.99
2022-12-03T08:49:35.149Z,99.99
2022-12-03T08:50:35.133Z,99.99
2022-12-03T08:51:35.124Z,99.99
2022-12-03T08:52:35.132Z,99.99
2022-12-03T08:53:35.103Z,99.99
2022-12-03T08:54:35.087Z,99.99
2022-12-03T08:55:35.078Z,99.99
2022-12-03T08:56:35.064Z,99.99
2022-12-03T08:57:35.052Z,99.99
2022-12-03T08:58:35.032Z,99.99
2022-12-03T08:59:35.020Z,99.99
2022-12-03T09:00:35.008Z,99.99
2022-12-03T09:01:35.132Z,99.99
2022-12-03T09:02:34.994Z,99.99
2022-12-03T09:03:34.968Z,99.99
2022-12-03T09:04:35.026Z,99.99
2022-12-03T09:05:34.956Z,99.99
2022-12-03T09:06:34.934Z,99.99
2022-12-03T09:07:34.966Z,99.99
2022-12-03T09:08:34.929Z,99.99
2022-12-03T09:09:34.903Z,99.99
2022-12-03T09:10:34.892Z,99.99
2022-12-03T09:11:34.874Z,99.99
2022-12-03T09:12:34.854Z,99.99
2022-12-03T09:13:34.844Z,99.99
2022-12-03T09:14:34.834Z,99.99
2022-12-03T09:15:34.815Z,99.99
2022-12-03T09:16:34.849Z,99.99
2022-12-03T09:17:34.789Z,99.99
2022-12-03T09:18:34.780Z,99.99
2022-12-03T09:19:34.769Z,99.99
2022-12-03T09:20:34.750Z,99.99
2022-12-03T09:21:34.737Z,99.99
2022-12-03T09:22:34.731Z,99.99
2022-12-03T09:23:34.712Z,99.99
2022-12-03T09:24:34.726Z,99.99
2022-12-03T09:25:34.693Z,99.99
2022-12-03T09:26:34.686Z,99.99
2022-12-03T09:27:34.658Z,99.99
2022-12-03T09:28:34.653Z,99.99
2022-12-03T09:29:34.636Z,99.99
2022-12-03T09:30:34.658Z,99.99
2022-12-03T09:31:34.676Z,99.99
2022-12-03T09:32:34.719Z,99.99
2022-12-03T09:33:34.582Z,99.99
2022-12-03T09:34:34.589Z,99.99
2022-12-03T09:35:34.569Z,99.99
2022-12-03T09:36:34.552Z,99.99
2022-12-03T09:37:34.541Z,99.99
2022-12-03T09:38:34.519Z,99.99
2022-12-03T09:39:34.513Z,99.99
2022-12-03T09:40:34.522Z,99.99
2022-12-03T09:41:34.487Z,99.99
2022-12-03T09:42:34.474Z,99.99
2022-12-03T09:44:02.676Z,99.99
2022-12-03T09:44:35.517Z,99.99
2022-12-03T09:45:34.480Z,99.99
2022-12-03T09:46:34.542Z,99.99
2022-12-03T09:47:34.409Z,99.99
2022-12-03T09:48:34.400Z,99.99
2022-12-03T09:49:34.382Z,99.99
2022-12-03T09:50:34.374Z,99.99
2022-12-03T09:51:34.378Z,99.99
2022-12-03T09:52:34.348Z,99.99
2022-12-03T09:53:39.679Z,99.99
2022-12-03T09:54:35.353Z,99.99
2022-12-03T09:55:34.304Z,99.99
2022-12-03T09:56:34.309Z,99.99
2022-12-03T09:57:34.276Z,99.99
2022-12-03T09:58:35.075Z,99.99
2022-12-03T09:59:34.258Z,99.99
2022-12-03T10:00:34.248Z,99.99
2022-12-03T10:01:34.284Z,99.99
2022-12-03T10:02:34.217Z,99.99
2022-12-03T10:03:34.205Z,99.99
2022-12-03T10:04:34.235Z,99.99
2022-12-03T10:05:34.184Z,99.99
2022-12-03T10:06:34.164Z,99.99
2022-12-03T10:07:34.197Z,99.99
2022-12-03T10:08:34.138Z,99.99
2022-12-03T10:09:34.133Z,99.99
2022-12-03T10:10:34.116Z,99.99
2022-12-03T10:11:34.105Z,99.99
2022-12-03T10:12:34.112Z,99.99
2022-12-03T10:13:34.068Z,99.99
2022-12-03T10:14:34.074Z,99.99
2022-12-03T10:15:34.053Z,99.99
2022-12-03T10:16:34.122Z,99.99
2022-12-03T10:17:34.025Z,99.99
2022-12-03T10:18:38.335Z,99.99
2022-12-03T10:19:35.032Z,99.99
2022-12-03T10:20:33.988Z,99.99
2022-12-03T10:21:33.969Z,99.99
2022-12-03T10:22:33.964Z,99.99
2022-12-03T10:23:33.941Z,99.99
2022-12-03T10:24:33.928Z,99.99
2022-12-03T10:25:33.916Z,99.99
2022-12-03T10:26:33.903Z,99.99
2022-12-03T10:27:33.897Z,99.99
2022-12-03T10:28:33.899Z,99.99
2022-12-03T10:29:34.695Z,99.99
2022-12-03T10:30:33.974Z,99.99
2022-12-03T10:31:33.837Z,99.99
2022-12-03T10:32:33.828Z,99.99
2022-12-03T10:33:33.821Z,99.99
2022-12-03T10:34:33.800Z,99.99
2022-12-03T10:35:33.800Z,99.99
2022-12-03T10:36:33.773Z,99.99
2022-12-03T10:37:33.773Z,99.99
2022-12-03T10:38:33.749Z,99.99
2022-12-03T10:39:33.743Z,99.99
2022-12-03T10:40:33.730Z,99.99
2022-12-03T10:41:33.708Z,99.99
2022-12-03T10:42:33.711Z,99.95
2022-12-03T10:43:33.712Z,99.84
2022-12-03T10:44:33.703Z,99.84
2022-12-03T10:45:33.658Z,99.84
2022-12-03T10:46:33.828Z,99.74
2022-12-03T10:47:33.801Z,99.84
2022-12-03T10:48:33.626Z,99.95
2022-12-03T10:49:33.607Z,99.99
2022-12-03T10:50:33.600Z,99.99
2022-12-03T10:51:33.592Z,99.99
2022-12-03T10:52:33.566Z,99.99
2022-12-03T10:53:33.567Z,99.99
2022-12-03T10:54:33.555Z,99.99
2022-12-03T10:55:33.542Z,99.99
2022-12-03T10:56:33.520Z,99.99
2022-12-03T10:57:33.518Z,99.99
2022-12-03T10:58:33.493Z,99.99
2022-12-03T10:59:33.485Z,99.95
2022-12-03T11:00:33.486Z,99.84
2022-12-03T11:01:33.526Z,99.74
2022-12-03T11:02:33.442Z,99.74
2022-12-03T11:03:33.492Z,99.84
2022-12-03T11:04:33.419Z,99.74
2022-12-03T11:05:33.412Z,99.53
2022-12-03T11:06:33.392Z,99.17
2022-12-03T11:07:33.455Z,99.07
2022-12-03T11:08:33.367Z,99.17
2022-12-03T11:09:33.354Z,98.86
2022-12-03T11:10:33.341Z,99.07
2022-12-03T11:11:33.325Z,99.07
2022-12-03T11:12:33.316Z,98.86
2022-12-03T11:13:33.319Z,97.86
2022-12-03T11:14:33.290Z,97.65
2022-12-03T11:15:33.365Z,97.86
2022-12-03T11:16:33.388Z,98.18
2022-12-03T11:17:33.249Z,98.38
2022-12-03T11:18:33.233Z,98.59
2022-12-03T11:19:33.231Z,98.49
2022-12-03T11:20:33.216Z,98.38
2022-12-03T11:21:33.212Z,98.07
2022-12-03T11:22:33.191Z,98.18
2022-12-03T11:23:33.173Z,98.38
2022-12-03T11:24:33.168Z,98.38
2022-12-03T11:25:33.144Z,98.59
2022-12-03T11:26:33.132Z,98.80
2022-12-03T11:27:33.124Z,98.49
2022-12-03T11:28:33.109Z,98.28
2022-12-03T11:29:33.094Z,97.65
2022-12-03T11:30:33.080Z,97.86
2022-12-03T11:31:33.151Z,98.18
2022-12-03T11:32:33.084Z,98.07
2022-12-03T11:33:33.042Z,98.28
2022-12-03T11:34:33.027Z,97.97
2022-12-03T11:35:33.016Z,97.86
2022-12-03T11:37:00.480Z,98.07
2022-12-03T11:37:34.037Z,97.97
2022-12-03T11:38:32.985Z,97.65
2022-12-03T11:39:32.974Z,97.65
2022-12-03T11:40:39.166Z,97.75
2022-12-03T11:41:33.978Z,97.75
2022-12-03T11:42:32.926Z,98.18
2022-12-03T11:43:32.913Z,98.49
2022-12-03T11:44:32.913Z,98.59
2022-12-03T11:45:32.887Z,98.59
2022-12-03T11:46:32.944Z,98.59
2022-12-03T11:47:32.867Z,98.44
2022-12-03T11:48:32.872Z,98.28
2022-12-03T11:49:32.848Z,98.18
2022-12-03T11:50:39.415Z,98.07
2022-12-03T11:51:33.841Z,98.07
2022-12-03T11:52:32.805Z,98.38
2022-12-03T11:53:32.792Z,98.49
2022-12-03T11:54:32.778Z,98.44
2022-12-03T11:55:32.773Z,98.28
2022-12-03T11:56:32.769Z,98.28
2022-12-03T11:57:32.739Z,98.07
2022-12-03T11:58:32.720Z,97.97
2022-12-03T11:59:32.714Z,97.34
2022-12-03T12:00:32.705Z,97.34
2022-12-03T12:01:38.094Z,97.24
2022-12-03T12:02:33.788Z,97.44
2022-12-03T12:03:33.491Z,97.59
2022-12-03T12:04:32.851Z,97.70
2022-12-03T12:05:32.665Z,97.91
2022-12-03T12:06:32.630Z,98.43
2022-12-03T12:07:32.652Z,98.43
2022-12-03T12:08:32.590Z,98.53
2022-12-03T12:09:32.585Z,98.85
2022-12-03T12:10:32.573Z,99.11
2022-12-03T12:11:32.553Z,99.11
2022-12-03T12:12:32.544Z,99.11
2022-12-03T12:13:32.537Z,99.11
2022-12-03T12:14:32.512Z,98.59
2022-12-03T12:15:32.512Z,98.28
2022-12-03T12:16:32.509Z,98.07
2022-12-03T12:17:32.488Z,97.86
2022-12-03T12:18:32.465Z,97.86
2022-12-03T12:19:32.458Z,98.07
2022-12-03T12:20:32.466Z,98.18
2022-12-03T12:21:32.432Z,98.28
2022-12-03T12:22:32.418Z,98.69
2022-12-03T12:23:32.398Z,98.90
2022-12-03T12:24:32.393Z,98.90
2022-12-03T12:25:32.389Z,98.90
2022-12-03T12:26:32.367Z,98.90
2022-12-03T12:27:32.360Z,98.49
2022-12-03T12:28:32.340Z,98.38
2022-12-03T12:29:32.323Z,98.49
2022-12-03T12:30:32.316Z,98.59
2022-12-03T12:31:32.362Z,98.69
2022-12-03T12:32:32.303Z,98.65
2022-12-03T12:33:32.284Z,98.44
2022-12-03T12:34:32.267Z,98.59
2022-12-03T12:35:32.252Z,98.38
2022-12-03T12:36:32.276Z,98.07
2022-12-03T12:37:32.221Z,98.28
2022-12-03T12:38:32.216Z,98.38
2022-12-03T12:39:32.203Z,98.59
2022-12-03T12:40:32.229Z,98.59
2022-12-03T12:41:32.166Z,98.49
2022-12-03T12:42:32.150Z,98.38
2022-12-03T12:43:32.140Z,98.28
2022-12-03T12:44:32.136Z,98.59
2022-12-03T12:45:32.124Z,98.59
2022-12-03T12:46:47.603Z,98.49
2022-12-03T12:47:33.215Z,98.59
2022-12-03T12:48:32.088Z,98.80
2022-12-03T12:49:32.071Z,98.90
2022-12-03T12:50:32.061Z,99.01
2022-12-03T12:51:32.040Z,98.59
2022-12-03T12:52:32.060Z,98.49